sensor_id;sensor_type;location;lat;lon;timestamp;pressure;altitude;pressure_sealevel;temperature;humidity
21401;BME280;18038;50.166;18.908;2023-07-28T15:13:37;97188.59;;;23.89;53.72
21401;BME280;18038;50.166;18.908;2023-07-28T15:14:14;97197.69;;;24.12;53.69
21401;BME280;18038;50.166;18.908;2023-07-28T15:14:49;97185.47;;;24.23;51.36
21401;BME280;18038;50.166;18.908;2023-07-28T15:15:23;97192.53;;;24.24;50.83
21401;BME280;18038;50.166;18.908;2023-07-28T15:16:00;97195.06;;;24.20;51.09
21401;BME280;18038;50.166;18.908;2023-07-28T15:16:33;97193.25;;;24.16;50.43
21401;BME280;18038;50.166;18.908;2023-07-28T15:17:07;97202.84;;;24.13;51.22
21401;BME280;18038;50.166;18.908;2023-07-28T15:17:43;97193.97;;;24.07;50.84
21401;BME280;18038;50.166;18.908;2023-07-28T15:18:47;97198.09;;;24.05;53.03
21401;BME280;18038;50.166;18.908;2023-07-28T15:19:23;97193.53;;;24.00;51.38
21401;BME280;18038;50.166;18.908;2023-07-28T15:20:07;97199.41;;;23.94;51.60
21401;BME280;18038;50.166;18.908;2023-07-28T15:21:08;97198.38;;;23.90;51.92
21401;BME280;18038;50.166;18.908;2023-07-28T15:21:52;97190.41;;;23.93;54.90
21401;BME280;18038;50.166;18.908;2023-07-28T15:22:30;97188.09;;;23.87;55.90
21401;BME280;18038;50.166;18.908;2023-07-28T15:23:05;97192.34;;;24.20;51.89
21401;BME280;18038;50.166;18.908;2023-07-28T15:23:39;97189.53;;;24.25;50.74
21401;BME280;18038;50.166;18.908;2023-07-28T15:24:12;97203.09;;;24.31;57.76
21401;BME280;18038;50.166;18.908;2023-07-28T15:24:51;97207.09;;;24.47;57.24
21401;BME280;18038;50.166;18.908;2023-07-28T15:25:25;97199.47;;;24.71;60.61
21401;BME280;18038;50.166;18.908;2023-07-28T15:25:59;97203.09;;;24.94;62.05
21401;BME280;18038;50.166;18.908;2023-07-28T15:26:36;97200.16;;;24.91;50.13
21401;BME280;18038;50.166;18.908;2023-07-28T15:27:09;97202.72;;;24.73;50.56
21401;BME280;18038;50.166;18.908;2023-07-28T15:27:44;97194.28;;;24.47;51.39
21401;BME280;18038;50.166;18.908;2023-07-28T15:28:18;97194.16;;;24.25;52.11
21401;BME280;18038;50.166;18.908;2023-07-28T15:28:54;97197.81;;;24.06;53.59
21401;BME280;18038;50.166;18.908;2023-07-28T15:29:30;97191.84;;;23.91;54.24
21401;BME280;18038;50.166;18.908;2023-07-28T15:30:04;97194.25;;;23.78;55.37
21401;BME280;18038;50.166;18.908;2023-07-28T15:30:41;97196.94;;;23.65;54.41
21401;BME280;18038;50.166;18.908;2023-07-28T15:31:18;97205.28;;;23.54;54.20
21401;BME280;18038;50.166;18.908;2023-07-28T15:31:51;97195.66;;;23.43;54.16
21401;BME280;18038;50.166;18.908;2023-07-28T15:32:26;97188.75;;;23.32;54.40
21401;BME280;18038;50.166;18.908;2023-07-28T15:33:03;97199.81;;;23.03;54.67
21401;BME280;18038;50.166;18.908;2023-07-28T15:33:37;97188.72;;;22.99;54.26
21401;BME280;18038;50.166;18.908;2023-07-28T15:34:10;97193.41;;;22.93;55.04
21401;BME280;18038;50.166;18.908;2023-07-28T15:34:44;97189.72;;;22.84;55.20
21401;BME280;18038;50.166;18.908;2023-07-28T15:35:20;97184.16;;;22.75;55.50
21401;BME280;18038;50.166;18.908;2023-07-28T15:35:53;97192.44;;;22.65;55.30
21401;BME280;18038;50.166;18.908;2023-07-28T15:36:27;97179.50;;;22.57;56.04
21401;BME280;18038;50.166;18.908;2023-07-28T15:37:03;97179.06;;;22.50;56.25
21401;BME280;18038;50.166;18.908;2023-07-28T15:37:39;97184.56;;;22.45;56.12
21401;BME280;18038;50.166;18.908;2023-07-28T15:38:14;97183.81;;;22.39;56.31
21401;BME280;18038;50.166;18.908;2023-07-28T15:41:31;97177.78;;;22.18;57.55
21401;BME280;18038;50.166;18.908;2023-07-28T15:44:38;97175.78;;;22.05;57.84
21401;BME280;18038;50.166;18.908;2023-07-28T15:47:44;97175.88;;;21.95;57.39
21401;BME280;18038;50.166;18.908;2023-07-28T15:50:52;97171.63;;;21.88;60.28
21401;BME280;18038;50.166;18.908;2023-07-28T15:53:58;97181.31;;;21.95;61.38
21401;BME280;18038;50.166;18.908;2023-07-28T15:57:26;97183.00;;;21.91;59.06
21401;BME280;18038;50.166;18.908;2023-07-28T16:00:33;97178.03;;;21.74;58.86
21401;BME280;18038;50.166;18.908;2023-07-28T16:03:40;97185.03;;;21.51;59.07
21401;BME280;18038;50.166;18.908;2023-07-28T16:06:47;97186.44;;;21.43;61.84
21401;BME280;18038;50.166;18.908;2023-07-28T16:09:53;97180.16;;;21.48;60.89
21401;BME280;18038;50.166;18.908;2023-07-28T16:13:02;97186.91;;;21.55;60.50
21401;BME280;18038;50.166;18.908;2023-07-28T16:16:11;97189.88;;;21.54;60.25
21401;BME280;18038;50.166;18.908;2023-07-28T16:19:19;97196.16;;;21.49;60.95
21401;BME280;18038;50.166;18.908;2023-07-28T16:22:25;97204.25;;;21.59;59.33
21401;BME280;18038;50.166;18.908;2023-07-28T16:25:32;97204.31;;;21.54;60.13
21401;BME280;18038;50.166;18.908;2023-07-28T16:28:41;97208.66;;;21.55;60.88
21401;BME280;18038;50.166;18.908;2023-07-28T16:31:49;97221.41;;;21.50;64.04
21401;BME280;18038;50.166;18.908;2023-07-28T16:34:55;97229.06;;;21.48;62.89
21401;BME280;18038;50.166;18.908;2023-07-28T16:38:02;97247.78;;;21.49;64.12
21401;BME280;18038;50.166;18.908;2023-07-28T16:41:08;97245.88;;;21.50;64.94
21401;BME280;18038;50.166;18.908;2023-07-28T16:44:18;97259.44;;;21.50;63.99
21401;BME280;18038;50.166;18.908;2023-07-28T16:47:24;97263.81;;;21.51;64.13
21401;BME280;18038;50.166;18.908;2023-07-28T16:50:32;97263.50;;;21.52;65.84
21401;BME280;18038;50.166;18.908;2023-07-28T16:53:39;97255.66;;;21.51;64.89
21401;BME280;18038;50.166;18.908;2023-07-28T16:56:46;97280.09;;;21.56;69.33
21401;BME280;18038;50.166;18.908;2023-07-28T16:59:54;97304.25;;;21.57;68.58
21401;BME280;18038;50.166;18.908;2023-07-28T17:03:02;97323.84;;;21.49;73.41
21401;BME280;18038;50.166;18.908;2023-07-28T17:06:08;97310.63;;;21.37;75.84
21401;BME280;18038;50.166;18.908;2023-07-28T17:09:16;97303.63;;;21.26;76.37
21401;BME280;18038;50.166;18.908;2023-07-28T17:12:22;97275.44;;;21.17;77.96
21401;BME280;18038;50.166;18.908;2023-07-28T17:15:32;97270.63;;;21.09;79.10
21401;BME280;18038;50.166;18.908;2023-07-28T17:18:42;97263.69;;;20.87;75.74
21401;BME280;18038;50.166;18.908;2023-07-28T17:21:51;97274.09;;;20.59;77.33
21401;BME280;18038;50.166;18.908;2023-07-28T17:24:57;97283.38;;;20.38;76.76
21401;BME280;18038;50.166;18.908;2023-07-28T17:28:04;97289.69;;;20.18;78.98
21401;BME280;18038;50.166;18.908;2023-07-28T17:31:13;97280.78;;;20.12;81.10
21401;BME280;18038;50.166;18.908;2023-07-28T17:34:20;97277.50;;;20.10;79.68
21401;BME280;18038;50.166;18.908;2023-07-28T17:37:27;97275.91;;;19.94;78.99
21401;BME280;18038;50.166;18.908;2023-07-28T17:40:35;97277.81;;;19.83;78.08
21401;BME280;18038;50.166;18.908;2023-07-28T17:43:41;97289.19;;;19.75;79.32
21401;BME280;18038;50.166;18.908;2023-07-28T17:46:51;97290.56;;;19.73;80.13
21401;BME280;18038;50.166;18.908;2023-07-28T17:49:57;97288.38;;;19.39;80.49
21401;BME280;18038;50.166;18.908;2023-07-28T17:53:04;97286.16;;;19.15;80.66
21401;BME280;18038;50.166;18.908;2023-07-28T17:56:11;97285.03;;;19.06;82.66
21401;BME280;18038;50.166;18.908;2023-07-28T17:59:19;97290.44;;;18.96;82.63
21401;BME280;18038;50.166;18.908;2023-07-28T18:02:28;97282.28;;;18.86;82.58
21401;BME280;18038;50.166;18.908;2023-07-28T18:05:35;97292.25;;;18.70;79.75
21401;BME280;18038;50.166;18.908;2023-07-28T18:08:41;97303.25;;;18.53;80.94
21401;BME280;18038;50.166;18.908;2023-07-28T18:11:48;97299.09;;;18.40;80.87
21401;BME280;18038;50.166;18.908;2023-07-28T18:14:54;97298.53;;;18.28;79.68
21401;BME280;18038;50.166;18.908;2023-07-28T18:18:04;97301.41;;;18.16;80.73
21401;BME280;18038;50.166;18.908;2023-07-28T18:21:10;97307.88;;;18.10;79.71
21401;BME280;18038;50.166;18.908;2023-07-28T18:24:17;97309.72;;;18.04;80.05
21401;BME280;18038;50.166;18.908;2023-07-28T18:27:23;97295.94;;;18.01;77.55
21401;BME280;18038;50.166;18.908;2023-07-28T18:30:31;97297.63;;;17.74;79.13
21401;BME280;18038;50.166;18.908;2023-07-28T18:33:39;97303.00;;;17.69;77.25
21401;BME280;18038;50.166;18.908;2023-07-28T18:36:46;97308.00;;;17.61;77.56
21401;BME280;18038;50.166;18.908;2023-07-28T18:39:55;97304.16;;;17.51;79.22
21401;BME280;18038;50.166;18.908;2023-07-28T18:43:02;97304.41;;;17.50;80.84
21401;BME280;18038;50.166;18.908;2023-07-28T18:46:09;97311.44;;;17.51;81.25
21401;BME280;18038;50.166;18.908;2023-07-28T18:49:18;97318.47;;;17.52;83.48
21401;BME280;18038;50.166;18.908;2023-07-28T18:52:25;97312.03;;;17.53;83.58
21401;BME280;18038;50.166;18.908;2023-07-28T18:55:34;97313.94;;;17.58;83.96
21401;BME280;18038;50.166;18.908;2023-07-28T18:58:41;97312.34;;;17.62;83.51
21401;BME280;18038;50.166;18.908;2023-07-28T19:01:48;97316.09;;;17.61;83.61
21401;BME280;18038;50.166;18.908;2023-07-28T19:04:56;97320.69;;;17.60;83.38
21401;BME280;18038;50.166;18.908;2023-07-28T19:08:25;97326.09;;;17.60;83.07
21401;BME280;18038;50.166;18.908;2023-07-28T19:11:32;97311.22;;;17.58;83.48
21401;BME280;18038;50.166;18.908;2023-07-28T19:14:39;97328.06;;;17.65;83.58
21401;BME280;18038;50.166;18.908;2023-07-28T19:17:46;97325.00;;;17.56;83.98
21401;BME280;18038;50.166;18.908;2023-07-28T19:20:56;97319.84;;;17.55;83.24
21401;BME280;18038;50.166;18.908;2023-07-28T19:24:03;97324.72;;;17.58;83.92
21401;BME280;18038;50.166;18.908;2023-07-28T19:27:10;97325.28;;;17.60;83.03
21401;BME280;18038;50.166;18.908;2023-07-28T19:30:17;97328.00;;;17.60;84.58
21401;BME280;18038;50.166;18.908;2023-07-28T19:33:26;97334.28;;;17.65;85.03
21401;BME280;18038;50.166;18.908;2023-07-28T19:36:35;97333.75;;;17.68;84.33
21401;BME280;18038;50.166;18.908;2023-07-28T19:39:42;97337.59;;;17.72;85.09
21401;BME280;18038;50.166;18.908;2023-07-28T19:42:57;97347.09;;;17.80;84.07
21401;BME280;18038;50.166;18.908;2023-07-28T19:46:07;97367.63;;;17.81;83.28
21401;BME280;18038;50.166;18.908;2023-07-28T19:49:14;97379.03;;;17.88;85.63
21401;BME280;18038;50.166;18.908;2023-07-28T19:52:23;97382.84;;;17.92;85.90
21401;BME280;18038;50.166;18.908;2023-07-28T19:55:29;97361.53;;;17.96;83.55
21401;BME280;18038;50.166;18.908;2023-07-28T19:58:36;97367.28;;;18.05;85.23
21401;BME280;18038;50.166;18.908;2023-07-28T20:01:43;97360.31;;;18.14;84.39
21401;BME280;18038;50.166;18.908;2023-07-28T20:04:50;97366.56;;;18.20;84.21
21401;BME280;18038;50.166;18.908;2023-07-28T20:07:59;97356.88;;;18.29;84.47
21401;BME280;18038;50.166;18.908;2023-07-28T20:11:06;97346.91;;;18.34;84.50
21401;BME280;18038;50.166;18.908;2023-07-28T20:14:13;97355.88;;;18.40;84.24
21401;BME280;18038;50.166;18.908;2023-07-28T20:17:20;97358.88;;;18.44;84.69
21401;BME280;18038;50.166;18.908;2023-07-28T20:20:27;97357.53;;;18.46;85.29
21401;BME280;18038;50.166;18.908;2023-07-28T20:23:43;97360.56;;;18.50;85.61
21401;BME280;18038;50.166;18.908;2023-07-28T20:26:49;97361.06;;;18.47;81.65
21401;BME280;18038;50.166;18.908;2023-07-28T20:29:57;97369.69;;;18.44;82.62
21401;BME280;18038;50.166;18.908;2023-07-28T20:33:03;97353.47;;;18.44;83.22
21401;BME280;18038;50.166;18.908;2023-07-28T20:36:10;97362.94;;;18.41;82.74
21401;BME280;18038;50.166;18.908;2023-07-28T20:39:21;97351.81;;;18.43;84.46
21401;BME280;18038;50.166;18.908;2023-07-28T20:42:29;97352.38;;;18.45;84.91
21401;BME280;18038;50.166;18.908;2023-07-28T20:45:36;97355.63;;;18.42;82.58
21401;BME280;18038;50.166;18.908;2023-07-28T20:48:43;97366.16;;;18.38;82.94
21401;BME280;18038;50.166;18.908;2023-07-28T20:51:49;97361.53;;;18.33;81.34
21401;BME280;18038;50.166;18.908;2023-07-28T20:55:02;97370.41;;;18.29;82.44
21401;BME280;18038;50.166;18.908;2023-07-28T20:58:10;97364.97;;;18.24;82.36
21401;BME280;18038;50.166;18.908;2023-07-28T21:01:18;97365.75;;;18.19;82.01
21401;BME280;18038;50.166;18.908;2023-07-28T21:04:25;97366.00;;;18.17;81.55
21401;BME280;18038;50.166;18.908;2023-07-28T21:07:33;97369.81;;;18.16;82.34
21401;BME280;18038;50.166;18.908;2023-07-28T21:10:43;97360.31;;;18.14;82.40
21401;BME280;18038;50.166;18.908;2023-07-28T21:13:50;97361.38;;;18.13;81.95
21401;BME280;18038;50.166;18.908;2023-07-28T21:16:57;97370.53;;;18.07;81.64
21401;BME280;18038;50.166;18.908;2023-07-28T21:20:06;97370.50;;;18.02;81.72
21401;BME280;18038;50.166;18.908;2023-07-28T21:23:13;97373.97;;;17.97;82.01
21401;BME280;18038;50.166;18.908;2023-07-28T21:26:24;97368.22;;;17.88;81.46
21401;BME280;18038;50.166;18.908;2023-07-28T21:29:31;97366.06;;;17.85;81.63
21401;BME280;18038;50.166;18.908;2023-07-28T21:32:38;97366.56;;;17.82;82.79
21401;BME280;18038;50.166;18.908;2023-07-28T21:35:45;97367.06;;;17.79;81.80
21401;BME280;18038;50.166;18.908;2023-07-28T21:38:55;97363.81;;;17.77;81.79
21401;BME280;18038;50.166;18.908;2023-07-28T21:42:10;97375.16;;;17.74;81.56
21401;BME280;18038;50.166;18.908;2023-07-28T21:45:19;97370.50;;;17.69;80.99
21401;BME280;18038;50.166;18.908;2023-07-28T21:48:25;97367.47;;;17.66;81.31
21401;BME280;18038;50.166;18.908;2023-07-28T21:51:33;97385.25;;;17.62;81.03
21401;BME280;18038;50.166;18.908;2023-07-28T21:54:39;97384.13;;;17.58;81.21
21401;BME280;18038;50.166;18.908;2023-07-28T22:00:37;97394.09;;;17.57;81.94
21401;BME280;18038;50.166;18.908;2023-07-28T22:03:46;97397.09;;;17.56;81.61
